Hendricks, West Virginia
Current Conditions -  °F | °C
As of 3:51 AM on Wednesday 28 Jan 2015 (Local Time) from KEKN Reporting Station
Light Snow Light Snow  
Wind Chill:   Ceiling: 1800
Heat Index: 17°   Visibility: 3mi
Dew Point: 13°   Wind: 7mph
Humidity: 84%   Direction: 280°W
Pressure: 30.14"   Gusts: NA
Location:  39.08°N, 79.63°W
Report Text: KEKN 280851Z AUTO 28006KT 3SM -SN BR BKN018 OVC023 M08/M11 A3014 RMK AO2 SLP242 P0000 60000 T10831106 53015 TSNO
Loading
Personal Weather Stations






























Interactive Weather Map New forecast layout! Learn more

10-Day Weather Forecast

Advertisements
Track Severe Weather on mobile